Time;durP1;ratioP1;P1;durP2;ratioP2;P2;SDS_P1;SDS_P2;PMS_P1;PMS_P2;Temp;Humidity;BMP_temperature;BMP_pressure;BME280_temperature;BME280_humidity;BME280_pressure;Samples;Min_cycle;Max_cycle;Signal;HPM_P1;HPM_P2
2022/03/15 00:03:03;;;;;;;21.25;11.32;;;;;;;5.69;33.03;101537.09;7736048;32;37280;-72
2022/03/15 00:07:19;;;;;;;18.60;10.13;;;;;;;5.60;32.57;101536.41;7736031;32;40189;-72
2022/03/15 00:11:40;;;;;;;21.65;11.27;;;;;;;5.80;31.63;101534.69;7735829;32;40717;-73
2022/03/15 00:15:58;;;;;;;20.02;11.38;;;;;;;5.36;33.55;101538.50;7736138;32;37885;-73
2022/03/15 00:20:18;;;;;;;21.33;10.85;;;;;;;5.34;33.92;101547.84;7739335;32;36351;-73
2022/03/15 00:24:34;;;;;;;21.52;11.15;;;;;;;5.20;34.10;101542.31;7739465;32;40285;-73
2022/03/15 00:28:50;;;;;;;21.65;11.02;;;;;;;5.32;33.34;101528.28;7739544;32;39991;-73
2022/03/15 00:33:08;;;;;;;24.33;11.65;;;;;;;5.30;33.83;101524.94;7739282;32;38591;-73
2022/03/15 00:37:24;;;;;;;23.30;11.93;;;;;;;5.06;36.43;101527.00;7739496;32;37414;-72
2022/03/15 00:41:41;;;;;;;19.40;10.90;;;;;;;5.35;34.98;101528.72;7739270;32;40025;-73
2022/03/15 00:45:57;;;;;;;23.87;11.82;;;;;;;5.55;34.39;101509.94;7739065;32;39909;-73
2022/03/15 00:50:13;;;;;;;18.08;10.60;;;;;;;5.40;33.82;101509.22;7738570;32;37726;-73
2022/03/15 00:54:29;;;;;;;20.48;10.40;;;;;;;5.15;33.44;101503.38;7739106;32;37217;-72
2022/03/15 00:58:45;;;;;;;22.25;11.05;;;;;;;5.17;32.80;101512.94;7739082;32;39428;-72
2022/03/15 01:03:02;;;;;;;21.05;11.30;;;;;;;5.19;34.42;101494.69;7739010;32;40737;-75
2022/03/15 01:07:18;;;;;;;19.67;10.07;;;;;;;5.15;33.03;101498.78;7738804;32;37709;-72
2022/03/15 01:11:34;;;;;;;20.00;10.88;;;;;;;5.30;33.56;101496.00;7738964;32;37105;-75
2022/03/15 01:15:50;;;;;;;19.37;10.02;;;;;;;5.26;34.52;101492.03;7738785;32;39050;-73
2022/03/15 01:20:09;;;;;;;17.90;10.55;;;;;;;4.90;34.35;101498.34;7738486;32;39910;-73
2022/03/15 01:24:25;;;;;;;21.23;11.40;;;;;;;5.04;34.07;101500.16;7738716;32;37773;-73
2022/03/15 01:28:42;;;;;;;19.60;10.55;;;;;;;4.99;34.31;101504.47;7737637;32;37186;-73
2022/03/15 01:32:58;;;;;;;20.48;11.27;;;;;;;5.05;35.43;101499.13;7738625;32;39807;-73
2022/03/15 01:37:15;;;;;;;20.52;10.25;;;;;;;4.83;35.38;101500.97;7738549;32;39610;-73
2022/03/15 01:41:35;;;;;;;23.87;11.85;;;;;;;5.14;35.12;101502.53;7738454;32;37921;-73
2022/03/15 01:45:53;;;;;;;21.15;11.25;;;;;;;4.87;35.63;101501.44;7737360;32;37974;-72
2022/03/15 01:50:10;;;;;;;24.27;11.07;;;;;;;4.94;35.97;101501.50;7738053;32;38246;-73
2022/03/15 01:54:26;;;;;;;19.60;10.57;;;;;;;4.62;36.41;101498.25;7738381;32;40011;-73
2022/03/15 01:58:42;;;;;;;20.45;11.45;;;;;;;4.49;36.88;101494.37;7736898;32;37918;-72
2022/03/15 02:02:58;;;;;;;22.50;10.55;;;;;;;4.59;36.91;101495.91;7738218;32;37387;-72
2022/03/15 02:07:15;;;;;;;19.33;9.80;;;;;;;4.53;36.07;101483.19;7738093;32;40055;-75
2022/03/15 02:11:35;;;;;;;20.73;11.20;;;;;;;4.41;35.61;101488.25;7738148;32;40726;-73
2022/03/15 02:15:51;;;;;;;20.30;10.35;;;;;;;4.06;36.62;101478.03;7738180;32;38693;-73
2022/03/15 02:20:09;;;;;;;20.90;11.50;;;;;;;4.19;36.10;101484.63;7737748;32;37269;-73
2022/03/15 02:24:25;;;;;;;22.25;11.50;;;;;;;4.07;36.80;101492.38;7738015;32;39292;-74
2022/03/15 02:28:41;;;;;;;20.75;10.45;;;;;;;4.29;36.82;101488.75;7736496;32;40107;-73
2022/03/15 02:32:58;;;;;;;21.37;11.02;;;;;;;4.43;36.52;101500.53;7737887;32;38003;-73
2022/03/15 02:37:14;;;;;;;18.52;10.23;;;;;;;4.56;35.19;101496.31;7737818;32;37347;-75
2022/03/15 02:41:30;;;;;;;21.58;11.40;;;;;;;4.45;34.92;101495.78;7737258;32;40008;-72
2022/03/15 02:45:46;;;;;;;20.23;10.40;;;;;;;4.29;35.17;101493.28;7737565;32;40292;-73
2022/03/15 02:50:02;;;;;;;21.33;11.70;;;;;;;4.42;35.66;101493.47;7737232;32;38124;-72
2022/03/15 02:54:18;;;;;;;19.62;10.77;;;;;;;4.33;37.07;101500.00;7737682;32;37179;-73
2022/03/15 02:58:34;;;;;;;17.10;10.60;;;;;;;4.31;35.92;101497.50;7737238;32;39830;-74
2022/03/15 03:02:50;;;;;;;22.27;12.45;;;;;;;4.16;35.36;101499.38;7737528;32;40850;-72
2022/03/15 03:07:07;;;;;;;21.48;11.77;;;;;;;3.86;38.03;101506.62;7737360;32;38542;-72
2022/03/15 03:11:23;;;;;;;24.60;11.73;;;;;;;3.98;39.10;101507.81;7737356;32;37321;-72
2022/03/15 03:15:39;;;;;;;23.27;12.25;;;;;;;4.17;37.39;101511.81;7737150;32;39284;-72
2022/03/15 03:19:55;;;;;;;22.02;12.05;;;;;;;3.82;38.83;101516.94;7737159;32;40156;-74
2022/03/15 03:24:17;;;;;;;20.98;12.35;;;;;;;3.72;39.30;101516.38;7736879;32;38139;-73
2022/03/15 03:28:36;;;;;;;20.42;11.38;;;;;;;3.84;38.90;101512.19;7736796;32;37488;-73
2022/03/15 03:32:52;;;;;;;20.70;11.23;;;;;;;3.76;37.95;101521.22;7737056;32;40567;-73
2022/03/15 03:37:08;;;;;;;17.65;10.10;;;;;;;3.62;36.58;101519.31;7736734;32;40811;-73
2022/03/15 03:41:24;;;;;;;17.00;9.98;;;;;;;3.81;35.88;101517.12;7736664;32;37758;-73
2022/03/15 03:45:41;;;;;;;19.55;10.65;;;;;;;3.96;35.33;101520.66;7736354;32;38033;-75
2022/03/15 03:49:57;;;;;;;19.10;10.25;;;;;;;3.90;35.39;101529.53;7736393;32;39280;-72
2022/03/15 03:54:13;;;;;;;17.95;10.88;;;;;;;3.90;35.67;101522.25;7739321;32;39992;-73
2022/03/15 03:58:29;;;;;;;18.42;9.88;;;;;;;3.89;35.53;101522.44;7739804;32;38813;-73
2022/03/15 04:02:45;;;;;;;17.92;10.70;;;;;;;3.80;36.76;101520.88;7739803;32;37107;-72
2022/03/15 04:07:05;;;;;;;19.85;11.57;;;;;;;3.98;35.16;101524.00;7739540;32;39454;-72
2022/03/15 04:11:21;;;;;;;23.02;11.02;;;;;;;4.04;34.72;101525.16;7739570;32;40795;-72
2022/03/15 04:15:37;;;;;;;21.30;11.25;;;;;;;3.69;36.06;101525.69;7739063;32;38720;-73
2022/03/15 04:19:53;;;;;;;20.35;11.15;;;;;;;3.83;34.93;101525.88;7739575;32;38055;-73
2022/03/15 04:24:09;;;;;;;21.55;11.38;;;;;;;3.72;39.11;101533.38;7739464;32;39809;-73
2022/03/15 04:28:25;;;;;;;22.80;11.82;;;;;;;3.77;39.48;101538.25;7739257;32;40136;-73
2022/03/15 04:32:42;;;;;;;21.45;11.85;;;;;;;3.73;38.80;101529.69;7739313;32;38026;-73
2022/03/15 04:36:58;;;;;;;19.75;11.82;;;;;;;3.84;38.58;101532.94;7739343;32;37135;-73
2022/03/15 04:41:14;;;;;;;22.30;11.70;;;;;;;3.82;39.29;101540.41;7739309;32;39894;-73
2022/03/15 04:45:30;;;;;;;23.05;12.20;;;;;;;3.90;39.35;101543.84;7738929;32;39736;-73
2022/03/15 04:49:46;;;;;;;20.83;11.70;;;;;;;3.74;39.11;101554.78;7739029;32;37649;-73
2022/03/15 04:54:03;;;;;;;20.62;11.93;;;;;;;3.74;39.11;101550.25;7739201;32;37275;-73
2022/03/15 04:58:20;;;;;;;19.67;12.10;;;;;;;3.48;39.30;101555.19;7739065;32;39244;-72
2022/03/15 05:02:40;;;;;;;25.37;12.52;;;;;;;3.53;39.13;101561.72;7738722;32;40720;-73
2022/03/15 05:06:56;;;;;;;21.05;11.73;;;;;;;3.32;38.78;101561.56;7738856;32;37974;-72
2022/03/15 05:11:14;;;;;;;23.55;12.95;;;;;;;3.27;40.01;101558.56;7738779;32;37967;-73
2022/03/15 05:15:30;;;;;;;23.75;12.32;;;;;;;3.34;37.91;101548.75;7738593;32;39350;-74
2022/03/15 05:19:47;;;;;;;22.67;12.23;;;;;;;3.17;39.88;101556.13;7738742;32;39820;-73
2022/03/15 05:24:04;;;;;;;23.15;12.10;;;;;;;3.13;41.25;101557.50;7738610;32;38018;-73
2022/03/15 05:28:20;;;;;;;21.20;11.43;;;;;;;3.31;40.52;101547.25;7738634;32;36980;-73
2022/03/15 05:32:36;;;;;;;23.12;12.05;;;;;;;3.46;40.14;101547.28;7738476;32;40019;-72
2022/03/15 05:36:52;;;;;;;23.25;11.60;;;;;;;3.32;39.22;101548.91;7738494;32;39920;-73
2022/03/15 05:41:08;;;;;;;32.55;12.20;;;;;;;3.43;39.02;101541.41;7738448;32;38697;-72
2022/03/15 05:45:41;;;;;;;;;;;;;;;3.44;38.03;101548.50;7738356;32;37992;-72
2022/03/15 05:49:57;;;;;;;23.67;11.70;;;;;;;3.63;39.17;101542.59;7738599;32;40474;-72
2022/03/15 05:54:13;;;;;;;23.87;11.43;;;;;;;3.45;40.51;101539.38;7738294;32;39981;-72
2022/03/15 05:58:30;;;;;;;35.38;12.60;;;;;;;3.81;39.92;101530.62;7738149;32;37951;-73
2022/03/15 06:02:46;;;;;;;26.10;11.95;;;;;;;4.03;39.40;101521.59;7738234;32;37960;-72
2022/03/15 06:07:03;;;;;;;22.33;11.20;;;;;;;4.02;39.00;101529.88;7738257;32;39014;-73
2022/03/15 06:11:22;;;;;;;24.08;11.57;;;;;;;4.08;38.81;101529.16;7738578;32;40879;-73
2022/03/15 06:15:38;;;;;;;22.33;13.02;;;;;;;4.27;38.62;101527.75;7737023;32;37770;-72
2022/03/15 06:19:54;;;;;;;22.45;11.75;;;;;;;4.17;38.74;101527.19;7738051;32;37313;-73
2022/03/15 06:24:11;;;;;;;26.83;12.77;;;;;;;4.28;37.71;101535.66;7734827;32;40118;-72
2022/03/15 06:28:27;;;;;;;31.92;12.57;;;;;;;4.43;39.57;101532.94;7737791;32;39834;-73
2022/03/15 06:32:43;;;;;;;23.67;12.27;;;;;;;4.83;38.30;101533.41;7737557;32;38733;-73
2022/03/15 06:37:00;;;;;;;32.97;12.07;;;;;;;4.78;38.42;101535.03;7737739;32;37200;-72
2022/03/15 06:41:16;;;;;;;22.92;12.43;;;;;;;4.91;38.62;101531.63;7737473;32;40052;-73
2022/03/15 06:45:32;;;;;;;31.08;13.27;;;;;;;5.08;38.06;101527.63;7737555;32;39683;-72
2022/03/15 06:49:48;;;;;;;22.00;13.48;;;;;;;5.36;37.50;101526.84;7737456;32;37559;-71
2022/03/15 06:54:04;;;;;;;26.33;12.90;;;;;;;5.52;37.17;101520.31;7737646;32;36896;-73
2022/03/15 06:58:20;;;;;;;29.58;13.90;;;;;;;5.46;36.86;101513.81;7737451;32;38978;-73
2022/03/15 07:02:36;;;;;;;25.35;13.32;;;;;;;5.57;36.37;101502.47;7737503;32;39600;-74
2022/03/15 07:06:53;;;;;;;24.08;12.60;;;;;;;5.80;36.01;101502.22;7737350;32;37962;-73
2022/03/15 07:11:09;;;;;;;21.08;11.40;;;;;;;6.07;33.40;101490.72;7737324;32;37271;-73
2022/03/15 07:15:25;;;;;;;23.73;12.70;;;;;;;6.54;32.86;101479.06;7736988;32;39412;-73
2022/03/15 07:19:45;;;;;;;21.40;12.25;;;;;;;6.50;34.80;101480.50;7737151;32;40774;-73
2022/03/15 07:24:01;;;;;;;23.42;10.80;;;;;;;6.90;34.53;101477.06;7737020;32;37977;-73
2022/03/15 07:28:17;;;;;;;20.05;11.85;;;;;;;7.01;37.85;101487.28;7736932;32;38081;-74
2022/03/15 07:32:33;;;;;;;18.87;11.10;;;;;;;6.86;31.82;101484.75;7735771;32;40103;-74
2022/03/15 07:36:49;;;;;;;18.92;11.63;;;;;;;7.46;35.71;101492.09;7736698;32;39968;-74
2022/03/15 07:41:05;;;;;;;22.33;11.93;;;;;;;8.19;28.80;101489.25;7736336;32;38033;-72
2022/03/15 07:45:21;;;;;;;24.42;13.93;;;;;;;8.18;28.01;101486.75;7717040;32;37493;-73
2022/03/15 07:49:37;;;;;;;27.45;14.18;;;;;;;7.91;29.43;101492.25;7736320;32;39298;-73
2022/03/15 07:53:54;;;;;;;23.62;12.80;;;;;;;8.23;30.13;101495.94;7736366;32;39880;-73
2022/03/15 07:58:10;;;;;;;23.95;13.98;;;;;;;7.92;30.72;101503.94;7736282;32;38720;-73
2022/03/15 08:02:26;;;;;;;24.10;13.45;;;;;;;8.46;30.23;101494.59;7736011;32;38040;-73
2022/03/15 08:06:42;;;;;;;24.25;13.75;;;;;;;8.75;30.79;101489.66;7736081;32;39099;-73
2022/03/15 08:10:58;;;;;;;26.30;13.02;;;;;;;9.00;30.86;101481.53;7736067;32;39637;-72
2022/03/15 08:15:14;;;;;;;23.77;13.10;;;;;;;8.91;30.12;101486.41;7735496;32;38041;-73
2022/03/15 08:19:31;;;;;;;25.27;13.35;;;;;;;9.09;30.11;101482.09;7735787;32;36988;-72
2022/03/15 08:23:48;;;;;;;21.80;13.27;;;;;;;9.27;29.01;101484.06;7734084;32;40137;-72
2022/03/15 08:28:04;;;;;;;26.35;13.50;;;;;;;9.29;28.10;101488.22;7735411;32;39958;-72
2022/03/15 08:32:21;;;;;;;28.42;13.70;;;;;;;9.56;27.93;101486.12;7735414;32;37955;-72
2022/03/15 08:36:38;;;;;;;23.77;12.98;;;;;;;9.53;27.35;101472.94;7735287;32;37462;-72
2022/03/15 08:40:54;;;;;;;32.85;13.38;;;;;;;9.83;27.37;101468.66;7738977;32;39355;-73
2022/03/15 08:45:10;;;;;;;25.85;15.02;;;;;;;10.51;26.75;101451.31;7731390;32;237940;-73
2022/03/15 08:49:26;;;;;;;24.30;13.52;;;;;;;10.70;26.64;101433.84;7738943;32;37696;-72
2022/03/15 08:53:43;;;;;;;31.45;16.50;;;;;;;11.08;25.39;101438.06;7739049;32;37314;-73
2022/03/15 08:57:59;;;;;;;30.37;15.52;;;;;;;11.09;25.09;101431.56;7739103;32;40205;-73
2022/03/15 09:02:17;;;;;;;29.90;15.35;;;;;;;11.20;23.42;101429.09;7738834;32;39981;-72
2022/03/15 09:06:34;;;;;;;21.75;10.20;;;;;;;11.32;23.58;101423.63;7738413;32;37067;-73
2022/03/15 09:10:50;;;;;;;20.50;11.48;;;;;;;12.40;21.71;101415.88;7738415;32;37524;-74
2022/03/15 09:15:06;;;;;;;20.77;10.30;;;;;;;12.87;20.79;101403.84;7738310;32;39573;-74
2022/03/15 09:19:22;;;;;;;17.55;10.25;;;;;;;13.40;19.90;101397.06;7738403;32;39683;-73
2022/03/15 09:23:39;;;;;;;16.25;9.90;;;;;;;14.12;19.75;101378.78;7738287;32;38865;-74
2022/03/15 09:27:55;;;;;;;19.90;9.95;;;;;;;14.69;18.96;101376.66;7738175;32;37691;-75
2022/03/15 09:32:12;;;;;;;19.48;10.10;;;;;;;14.30;18.63;101368.53;7738544;32;39246;-74
2022/03/15 09:36:28;;;;;;;16.62;9.70;;;;;;;15.18;17.55;101371.00;7738471;32;39902;-75
2022/03/15 09:40:46;;;;;;;17.15;10.27;;;;;;;15.79;17.31;101364.22;7738164;32;37765;-73
2022/03/15 09:45:04;;;;;;;19.90;9.95;;;;;;;16.09;17.22;101366.25;7733389;32;36392;-74
2022/03/15 09:49:20;;;;;;;20.35;10.48;;;;;;;16.33;16.41;101361.09;7729750;32;39344;-74
2022/03/15 09:53:37;;;;;;;20.17;11.48;;;;;;;15.95;17.24;101365.94;7736545;32;40037;-73
2022/03/15 09:57:54;;;;;;;23.75;11.85;;;;;;;16.63;16.20;101351.22;7710306;32;38579;-74
2022/03/15 10:02:12;;;;;;;25.73;14.38;;;;;;;16.67;16.44;101344.88;7730226;32;38012;-75
2022/03/15 10:06:28;;;;;;;20.45;10.57;;;;;;;16.48;15.97;101341.03;7736512;32;39680;-76
2022/03/15 10:10:48;;;;;;;22.58;11.18;;;;;;;17.02;14.70;101342.41;7736065;32;40345;-74
2022/03/15 10:15:31;;;;;;;33.95;22.27;;;;;;;17.22;14.65;101331.38;7736729;32;37692;-74
2022/03/15 10:19:56;;;;;;;25.83;16.60;;;;;;;17.47;14.56;101329.63;7737228;32;37275;-73
2022/03/15 10:24:22;;;;;;;22.35;13.88;;;;;;;17.41;14.65;101319.75;7737733;32;39996;-74
2022/03/15 10:28:39;;;;;;;16.40;10.52;;;;;;;17.17;13.98;101325.88;7737523;32;39850;-74
2022/03/15 10:32:57;;;;;;;16.98;10.38;;;;;;;17.32;14.32;101304.91;7737379;32;37978;-75
2022/03/15 10:37:13;;;;;;;17.35;9.90;;;;;;;18.27;13.69;101297.56;7737545;32;38293;-74
2022/03/15 10:41:41;;;;;;;18.25;8.90;;;;;;;18.82;13.09;101289.09;7737401;32;38482;-74
2022/03/15 10:45:58;;;;;;;15.38;9.00;;;;;;;18.56;12.99;101287.38;7736057;32;40722;-74
2022/03/15 10:50:16;;;;;;;15.88;9.02;;;;;;;18.80;12.90;101280.25;7736956;32;37866;-74
2022/03/15 10:54:32;;;;;;;15.27;9.13;;;;;;;18.74;13.29;101268.44;7737426;32;37090;-74
2022/03/15 10:58:48;;;;;;;15.85;8.85;;;;;;;19.16;12.73;101252.28;7737171;32;39234;-74
2022/03/15 11:03:13;;;;;;;14.93;9.20;;;;;;;19.35;12.28;101239.34;7736875;32;40637;-74
2022/03/15 11:07:41;;;;;;;20.48;10.27;;;;;;;19.44;12.43;101231.22;7737176;32;37959;-74
2022/03/15 11:12:06;;;;;;;15.63;9.13;;;;;;;19.82;12.07;101223.78;7736942;32;38035;-75
2022/03/15 11:16:23;;;;;;;15.02;8.43;;;;;;;19.95;11.40;101213.91;7737183;32;40174;-74
2022/03/15 11:20:41;;;;;;;13.65;8.40;;;;;;;19.14;12.09;101217.47;7735918;32;39861;-74
2022/03/15 11:25:04;;;;;;;15.30;8.07;;;;;;;18.45;12.64;101205.72;7736999;32;37111;-74
2022/03/15 11:29:22;;;;;;;14.23;9.00;;;;;;;18.38;12.86;101203.34;7736905;32;38042;-74
2022/03/15 11:33:40;;;;;;;14.60;9.13;;;;;;;18.61;12.60;101192.63;7735802;32;39387;-74
2022/03/15 11:37:57;;;;;;;18.48;9.52;;;;;;;18.83;12.37;101188.53;7736235;32;40791;-75
2022/03/15 11:42:14;;;;;;;14.73;8.68;;;;;;;18.65;12.67;101185.38;7735171;32;38006;-76
2022/03/15 11:46:43;;;;;;;17.65;9.27;;;;;;;19.25;12.80;101184.19;7736248;32;37113;-76
2022/03/15 11:51:12;;;;;;;18.67;11.30;;;;;;;19.50;12.59;101160.88;7736144;32;39407;-75
2022/03/15 11:55:38;;;;;;;18.87;9.63;;;;;;;19.53;12.42;101146.44;7736259;32;40970;-75
2022/03/15 11:59:56;;;;;;;15.07;10.20;;;;;;;19.62;12.25;101132.75;7734972;32;37637;-74
2022/03/15 12:04:13;;;;;;;14.82;9.10;;;;;;;20.01;12.19;101126.91;7736059;32;37928;-72
2022/03/15 12:08:35;;;;;;;13.50;8.68;;;;;;;20.42;11.87;101111.47;7736030;32;40112;-74
2022/03/15 12:13:02;;;;;;;13.38;8.57;;;;;;;20.81;11.13;101110.19;7736930;32;39905;-74
2022/03/15 12:17:19;;;;;;;17.35;9.15;;;;;;;20.99;11.26;101103.72;7738908;32;37554;-74
2022/03/15 12:21:52;;;;;;;15.20;9.00;;;;;;;21.27;11.28;101086.22;7738900;32;37985;-73
2022/03/15 12:26:22;;;;;;;14.83;8.83;;;;;;;21.87;10.41;101093.38;7738697;32;39462;-74
2022/03/15 12:30:50;;;;;;;14.50;8.65;;;;;;;20.36;11.82;101079.50;7738954;32;39619;-74
2022/03/15 12:35:08;;;;;;;23.58;9.85;;;;;;;20.85;11.75;101072.41;7738289;32;38023;-75
2022/03/15 12:39:29;;;;;;;15.93;9.55;;;;;;;20.52;12.51;101066.16;7738766;32;37018;-75
2022/03/15 12:43:53;;;;;;;17.33;9.52;;;;;;;20.21;12.20;101073.12;7738739;32;40335;-75
2022/03/15 12:48:09;;;;;;;18.52;9.00;;;;;;;19.62;12.79;101063.63;7738254;32;40819;-75
2022/03/15 12:52:50;;;;;;;16.67;9.07;;;;;;;19.62;13.05;101049.78;7738361;32;39188;-74
2022/03/15 12:57:12;;;;;;;16.98;9.50;;;;;;;19.85;13.22;101045.25;7738185;32;37868;-77
2022/03/15 13:01:31;;;;;;;14.50;8.80;;;;;;;19.85;13.08;101054.41;7737878;32;39427;-75
2022/03/15 13:05:52;;;;;;;18.67;10.43;;;;;;;19.13;14.44;101044.44;7737149;32;40001;-75
2022/03/15 13:10:09;;;;;;;16.27;9.88;;;;;;;19.22;14.64;101041.03;7737682;32;38015;-76
2022/03/15 13:14:27;;;;;;;13.93;8.80;;;;;;;18.37;15.10;101033.28;7735893;32;37311;-75
2022/03/15 13:18:44;;;;;;;17.27;8.63;;;;;;;18.03;15.70;101022.34;7738921;32;39682;-76
2022/03/15 13:23:03;;;;;;;14.93;8.43;;;;;;;17.74;15.37;101028.62;7738629;32;40827;-76
2022/03/15 13:27:19;;;;;;;14.87;8.05;;;;;;;17.76;15.39;101020.06;7738482;32;37946;-76
2022/03/15 13:31:37;;;;;;;15.30;9.57;;;;;;;17.32;16.31;101018.25;7737132;32;37260;-75
2022/03/15 13:36:02;;;;;;;14.93;8.27;;;;;;;17.61;15.76;101016.34;7738741;32;39255;-74
2022/03/15 13:40:24;;;;;;;18.95;8.52;;;;;;;17.74;15.63;101008.53;7737825;32;40748;-78
2022/03/15 13:44:48;;;;;;;14.75;8.90;;;;;;;17.29;15.73;101002.28;7737594;32;37987;-75
2022/03/15 13:49:05;;;;;;;;;;;;;;;17.34;15.94;100991.22;7738191;32;38414;-76
2022/03/15 13:53:23;;;;;;;13.82;7.82;;;;;;;18.25;15.02;100974.91;7737744;32;39604;-75
2022/03/15 13:57:42;;;;;;;16.92;8.20;;;;;;;18.56;15.38;100978.09;7737956;32;40194;-75
2022/03/15 14:02:02;;;;;;;12.88;7.70;;;;;;;19.18;14.42;100960.62;7738077;32;38466;-76
2022/03/15 14:06:20;;;;;;;17.50;8.27;;;;;;;18.75;14.91;100953.25;7737933;32;36821;-75
2022/03/15 14:10:37;;;;;;;18.95;8.15;;;;;;;18.48;14.69;100945.59;7737712;32;38501;-75
2022/03/15 14:14:54;;;;;;;14.87;7.68;;;;;;;18.44;14.44;100939.03;7738046;32;40790;-76
2022/03/15 14:19:18;;;;;;;14.00;7.50;;;;;;;18.67;14.88;100925.47;7738280;32;37698;-75
2022/03/15 14:23:34;;;;;;;14.50;7.80;;;;;;;18.55;14.72;100928.69;7736902;32;36993;-76
2022/03/15 14:28:01;;;;;;;23.02;11.18;;;;;;;18.70;14.93;100919.34;7738133;32;39042;-75
2022/03/15 14:32:17;;;;;;;21.98;11.95;;;;;;;19.05;14.64;100903.38;7736516;32;40783;-75
2022/03/15 14:36:35;;;;;;;19.67;9.38;;;;;;;19.29;14.35;100894.94;7736663;32;38818;-74
2022/03/15 14:40:58;;;;;;;19.08;8.15;;;;;;;19.65;14.41;100884.03;7731786;32;37933;-74
2022/03/15 14:45:14;;;;;;;14.57;7.97;;;;;;;19.18;14.59;100890.69;7736677;32;39323;-76
2022/03/15 14:49:31;;;;;;;12.35;7.90;;;;;;;19.06;14.84;100889.25;7737341;32;38673;-75
2022/03/15 14:53:49;;;;;;;12.88;7.80;;;;;;;19.34;14.90;100878.25;7737331;32;36558;-75
2022/03/15 14:58:06;;;;;;;16.83;8.32;;;;;;;18.97;15.20;100877.22;7737310;32;37352;-75
2022/03/15 15:02:28;;;;;;;12.98;7.68;;;;;;;18.46;15.92;100880.78;7737542;32;40152;-75
2022/03/15 15:06:46;;;;;;;12.52;7.55;;;;;;;18.57;15.26;100887.78;7737560;32;38576;-76
2022/03/15 15:11:03;;;;;;;12.65;7.62;;;;;;;18.22;16.23;100898.19;7737406;32;38170;-75
2022/03/15 15:15:20;;;;;;;14.35;8.32;;;;;;;17.97;16.26;100896.56;7737365;32;37182;-75
2022/03/15 15:19:39;;;;;;;12.88;7.53;;;;;;;17.20;17.71;100894.63;7737311;32;39141;-74
2022/03/15 15:23:55;;;;;;;15.57;8.13;;;;;;;17.80;16.88;100889.59;7737016;32;39020;-74
2022/03/15 15:28:15;;;;;;;17.95;8.32;;;;;;;17.54;16.96;100893.72;7736488;32;37951;-74
2022/03/15 15:32:31;;;;;;;52.20;26.10;;;;;;;17.42;17.04;100885.88;7736253;32;37949;-74
2022/03/15 15:36:47;;;;;;;13.32;7.68;;;;;;;17.59;16.84;100875.22;7735423;32;39221;-77
2022/03/15 15:41:03;;;;;;;12.60;7.25;;;;;;;16.67;18.00;100870.50;7735790;32;39986;-75
2022/03/15 15:45:21;;;;;;;14.73;7.65;;;;;;;17.04;17.41;100861.69;7736199;32;37966;-75
2022/03/15 15:49:37;;;;;;;15.38;7.62;;;;;;;16.92;17.91;100861.25;7738340;32;37856;-76
2022/03/15 15:53:53;;;;;;;17.60;8.85;;;;;;;16.40;18.43;100847.03;7739793;32;39451;-75
2022/03/15 15:58:09;;;;;;;34.47;19.15;;;;;;;16.62;18.19;100856.75;7739695;32;40899;-77
2022/03/15 16:02:25;;;;;;;19.92;12.27;;;;;;;16.21;18.83;100848.75;7739637;32;37760;-74
2022/03/15 16:06:46;;;;;;;11.75;7.40;;;;;;;16.30;18.63;100844.31;7738462;32;37241;-78
2022/03/15 16:11:05;;;;;;;14.23;7.93;;;;;;;15.58;19.19;100850.13;7739746;32;39386;-75
2022/03/15 16:15:24;;;;;;;19.40;7.95;;;;;;;15.22;19.90;100836.47;7739686;32;39907;-77
2022/03/15 16:19:40;;;;;;;17.77;8.43;;;;;;;15.69;19.19;100824.22;7739513;32;37682;-77
2022/03/15 16:23:57;;;;;;;13.70;6.97;;;;;;;15.11;20.06;100826.56;7739496;32;37010;-76
2022/03/15 16:28:13;;;;;;;13.82;7.15;;;;;;;15.38;19.42;100818.00;7739389;32;39320;-76
2022/03/15 16:32:29;;;;;;;16.10;7.80;;;;;;;15.46;19.68;100822.12;7739384;32;40869;-76
2022/03/15 16:36:45;;;;;;;13.60;7.72;;;;;;;15.31;19.87;100818.28;7739371;32;38073;-76
2022/03/15 16:41:01;;;;;;;13.10;7.80;;;;;;;15.93;19.00;100823.59;7739316;32;37928;-77
2022/03/15 16:45:21;;;;;;;14.87;7.57;;;;;;;15.92;18.97;100827.47;7739159;32;40046;-78
2022/03/15 16:49:38;;;;;;;11.07;6.60;;;;;;;15.43;19.57;100826.22;7739021;32;40831;-77
2022/03/15 16:53:54;;;;;;;12.63;7.47;;;;;;;15.22;19.85;100819.97;7738678;32;38112;-76
2022/03/15 16:59:07;;;;;;;17.62;7.40;;;;;;;15.07;19.74;100804.34;7737999;32;37248;-77
2022/03/15 17:02:46;;;;;;;10.52;6.60;;;;;;;14.74;20.53;100800.25;7738532;32;37508;-77
2022/03/15 17:07:02;;;;;;;13.93;6.97;;;;;;;14.68;20.49;100788.47;7738915;32;40222;-77
2022/03/15 17:11:22;;;;;;;14.23;6.87;;;;;;;15.22;20.47;100787.00;7738851;32;37620;-77
2022/03/15 17:15:38;;;;;;;13.60;6.97;;;;;;;14.62;20.41;100795.84;7738969;32;37270;-78
2022/03/15 17:19:55;;;;;;;10.57;6.82;;;;;;;15.13;19.85;100788.69;7738633;32;39367;-78
2022/03/15 17:24:12;;;;;;;11.43;6.87;;;;;;;14.99;19.92;100778.28;7727505;32;39980;-80
2022/03/15 17:28:30;;;;;;;11.85;6.93;;;;;;;14.88;20.22;100776.63;7735516;32;38654;-77
2022/03/15 17:32:46;;;;;;;10.05;6.15;;;;;;;14.95;20.15;100766.22;7735467;32;39271;-78
2022/03/15 17:37:03;;;;;;;10.68;7.22;;;;;;;14.62;20.82;100765.66;7721529;32;39879;-79
2022/03/15 17:41:22;;;;;;;10.75;6.53;;;;;;;14.55;20.66;100765.09;7711669;32;39863;-77
2022/03/15 17:45:42;;;;;;;11.50;6.95;;;;;;;14.73;20.62;100765.66;7711528;32;37877;-78
2022/03/15 17:50:00;;;;;;;12.25;6.85;;;;;;;14.56;21.01;100775.00;7720734;32;38193;-79
2022/03/15 17:54:21;;;;;;;13.93;7.55;;;;;;;14.55;21.04;100778.81;7718334;32;40194;-79
2022/03/15 17:58:37;;;;;;;15.65;7.45;;;;;;;14.67;20.59;100777.75;7738344;32;39840;-76
2022/03/15 18:02:54;;;;;;;18.02;9.15;;;;;;;14.80;20.45;100763.47;7738220;32;38828;-79
2022/03/15 18:07:10;;;;;;;14.68;7.93;;;;;;;15.06;20.25;100755.22;7738094;32;37303;-77
2022/03/15 18:11:26;;;;;;;19.20;7.60;;;;;;;14.70;20.79;100764.31;7737160;32;39420;-76
2022/03/15 18:15:42;;;;;;;13.18;7.25;;;;;;;14.90;20.33;100749.75;7738283;32;39955;-78
2022/03/15 18:19:58;;;;;;;13.80;7.75;;;;;;;14.91;20.15;100737.66;7738300;32;38722;-75
2022/03/15 18:24:17;;;;;;;13.25;7.18;;;;;;;14.38;21.12;100739.84;7738156;32;37672;-76
2022/03/15 18:28:41;;;;;;;13.13;7.22;;;;;;;14.61;20.87;100739.34;7738071;32;38267;-78
2022/03/15 18:32:58;;;;;;;12.25;7.50;;;;;;;15.09;19.78;100732.66;7733185;32;39934;-76
2022/03/15 18:37:14;;;;;;;14.00;7.87;;;;;;;14.74;20.79;100726.97;7730013;32;38097;-76
2022/03/15 18:41:31;;;;;;;15.23;7.70;;;;;;;15.13;20.42;100718.09;7733880;32;36808;-76
2022/03/15 18:45:57;;;;;;;12.52;7.32;;;;;;;15.15;20.45;100726.06;7737592;32;40025;-76
2022/03/15 18:50:13;;;;;;;15.15;8.63;;;;;;;15.27;20.60;100721.06;7737420;32;40178;-78
2022/03/15 18:54:29;;;;;;;16.95;8.50;;;;;;;15.01;20.87;100710.16;7737507;32;38186;-74
2022/03/15 18:58:46;;;;;;;14.55;8.25;;;;;;;15.07;20.82;100721.13;7737387;32;38573;-74
2022/03/15 19:03:03;;;;;;;14.13;8.07;;;;;;;14.92;21.17;100702.78;7737360;32;40509;-78
2022/03/15 19:07:22;;;;;;;16.52;9.05;;;;;;;14.87;21.24;100709.13;7737312;32;40929;-77
2022/03/15 19:11:44;;;;;;;15.65;7.75;;;;;;;14.62;21.70;100712.72;7737066;32;38731;-76
2022/03/15 19:16:01;;;;;;;15.88;8.73;;;;;;;14.83;21.45;100697.03;7736953;32;38127;-74
2022/03/15 19:20:20;;;;;;;22.02;9.50;;;;;;;14.45;21.65;100702.84;7737047;32;39414;-76
2022/03/15 19:24:36;;;;;;;16.48;9.48;;;;;;;14.29;21.66;100701.19;7736432;32;40855;-76
2022/03/15 19:28:53;;;;;;;19.08;10.55;;;;;;;14.33;21.29;100682.25;7736748;32;37584;-77
2022/03/15 19:33:10;;;;;;;18.33;9.65;;;;;;;13.93;21.60;100672.94;7736783;32;36939;-75
2022/03/15 19:37:27;;;;;;;15.82;9.23;;;;;;;13.68;21.75;100674.53;7736394;32;39357;-79
2022/03/15 19:41:45;;;;;;;16.02;9.27;;;;;;;13.76;21.47;100667.69;7736529;32;40757;-79
2022/03/15 19:46:03;;;;;;;16.17;8.77;;;;;;;13.88;21.08;100666.34;7735106;32;37935;-77